Time;durP1;ratioP1;P1;durP2;ratioP2;P2;SDS_P1;SDS_P2;PMS_P1;PMS_P2;Temp;Humidity;BMP_temperature;BMP_pressure;BME280_temperature;BME280_humidity;BME280_pressure;Samples;Min_cycle;Max_cycle;Signal;HPM_P1;HPM_P2
2022/12/20 00:02:16;;;;;;;38.30;22.90;;;3.30;99.90;;;;;;5033655;28;20105;-66
2022/12/20 00:04:42;;;;;;;52.72;30.25;;;3.40;99.90;;;;;;5033327;28;20053;-66
2022/12/20 00:07:07;;;;;;;59.65;33.80;;;3.40;99.90;;;;;;5033583;28;20039;-63
2022/12/20 00:09:33;;;;;;;73.78;37.85;;;3.30;99.90;;;;;;5033459;28;20136;-68
2022/12/20 00:11:59;;;;;;;55.85;31.88;;;3.20;99.90;;;;;;5033399;28;20029;-68
2022/12/20 00:14:24;;;;;;;70.60;39.53;;;3.20;99.90;;;;;;5033518;28;20040;-63
2022/12/20 00:16:50;;;;;;;68.03;37.80;;;3.30;99.90;;;;;;5033376;28;20028;-66
2022/12/20 00:19:16;;;;;;;59.25;34.25;;;3.20;99.90;;;;;;5031645;28;20045;-66
2022/12/20 00:21:41;;;;;;;64.78;37.13;;;3.20;99.90;;;;;;5033482;28;20476;-67
2022/12/20 00:24:08;;;;;;;57.22;30.10;;;3.40;99.90;;;;;;5033330;28;20044;-63
2022/12/20 00:26:35;;;;;;;49.00;27.52;;;3.30;99.90;;;;;;5033249;28;20017;-66
2022/12/20 00:29:01;;;;;;;45.05;25.77;;;3.40;99.90;;;;;;5033235;28;20506;-65
2022/12/20 00:31:28;;;;;;;54.75;29.92;;;3.30;99.90;;;;;;5033478;28;20029;-64
2022/12/20 00:33:55;;;;;;;51.65;27.52;;;3.40;99.90;;;;;;5033183;28;20472;-64
2022/12/20 00:36:23;;;;;;;52.65;28.98;;;3.40;99.90;;;;;;5033490;28;20049;-64
2022/12/20 00:38:51;;;;;;;65.00;33.20;;;3.30;99.90;;;;;;5033235;28;20022;-66
2022/12/20 00:41:23;;;;;;;55.83;29.58;;;3.20;99.90;;;;;;5033115;28;20045;-66
2022/12/20 00:43:49;;;;;;;53.13;27.27;;;3.20;99.90;;;;;;5033398;28;20076;-65
2022/12/20 00:46:16;;;;;;;41.63;24.33;;;3.20;99.90;;;;;;5033018;28;20419;-63
2022/12/20 00:48:42;;;;;;;48.63;25.90;;;3.20;99.90;;;;;;5033070;28;20435;-65
2022/12/20 00:51:11;;;;;;;45.85;24.75;;;3.30;99.90;;;;;;5033680;28;20109;-64
2022/12/20 00:53:38;;;;;;;48.80;25.55;;;3.30;99.90;;;;;;5037114;28;20468;-66
2022/12/20 00:56:05;;;;;;;52.08;27.08;;;3.30;99.90;;;;;;5037019;28;20024;-65
2022/12/20 00:58:35;;;;;;;49.63;26.70;;;3.30;99.90;;;;;;5037139;28;20076;-65
2022/12/20 01:01:02;;;;;;;58.13;29.38;;;3.30;99.90;;;;;;5036839;28;20025;-65
2022/12/20 01:03:28;;;;;;;55.75;26.15;;;3.30;99.90;;;;;;5037129;28;20022;-65
2022/12/20 01:05:56;;;;;;;46.15;24.58;;;3.20;99.90;;;;;;5037174;28;20025;-65
2022/12/20 01:08:23;;;;;;;49.53;26.67;;;3.10;99.90;;;;;;5036849;28;20026;-63
2022/12/20 01:11:01;;;;;;;54.63;26.55;;;3.10;99.90;;;;;;5036673;28;20029;-63
2022/12/20 01:13:28;;;;;;;49.97;26.98;;;3.10;99.90;;;;;;5036692;28;20026;-65
2022/12/20 01:15:54;;;;;;;45.42;26.80;;;2.90;99.90;;;;;;5036806;28;20390;-67
2022/12/20 01:18:19;;;;;;;56.00;30.20;;;2.90;99.90;;;;;;5036512;28;20049;-63
2022/12/20 01:20:45;;;;;;;52.90;28.98;;;3.00;99.90;;;;;;5036677;28;20044;-67
2022/12/20 01:23:11;;;;;;;53.90;29.85;;;3.20;99.90;;;;;;5036525;28;20014;-65
2022/12/20 01:25:36;;;;;;;45.78;26.02;;;3.10;99.90;;;;;;5036500;28;20025;-66
2022/12/20 01:28:02;;;;;;;46.22;24.88;;;3.20;99.90;;;;;;5036751;28;20560;-64
2022/12/20 01:30:28;;;;;;;52.30;27.58;;;3.30;99.90;;;;;;5036329;28;20387;-64
2022/12/20 01:32:53;;;;;;;39.97;24.00;;;3.50;99.90;;;;;;5036533;28;20360;-66
2022/12/20 01:35:19;;;;;;;46.83;24.73;;;3.40;99.90;;;;;;5036358;28;20026;-67
2022/12/20 01:37:45;;;;;;;41.13;24.10;;;3.30;99.90;;;;;;5036376;28;20025;-65
2022/12/20 01:40:11;;;;;;;41.10;23.00;;;3.40;99.90;;;;;;5036224;28;20099;-63
2022/12/20 01:42:36;;;;;;;38.85;21.08;;;3.30;99.90;;;;;;5036192;28;20025;-64
2022/12/20 01:45:08;;;;;;;43.40;23.08;;;3.20;99.90;;;;;;5036054;28;20021;-66
2022/12/20 01:47:35;;;;;;;34.58;19.17;;;3.20;99.90;;;;;;5036197;28;20106;-66
2022/12/20 01:50:03;;;;;;;28.95;17.73;;;3.20;99.90;;;;;;5035962;28;20025;-66
2022/12/20 01:52:35;;;;;;;25.85;15.80;;;3.40;99.90;;;;;;5036311;28;20025;-67
2022/12/20 01:55:13;;;;;;;32.22;17.67;;;3.40;99.90;;;;;;5035904;28;20021;-67
2022/12/20 01:58:05;;;;;;;35.97;17.63;;;3.50;99.90;;;;;;5035867;28;20017;-63
2022/12/20 02:00:31;;;;;;;26.42;16.13;;;3.50;99.90;;;;;;5035289;28;20121;-63
2022/12/20 02:03:03;;;;;;;24.50;14.15;;;3.50;99.90;;;;;;5034965;28;20450;-67
2022/12/20 02:05:35;;;;;;;22.92;13.95;;;3.50;99.90;;;;;;5035837;28;20365;-67
2022/12/20 02:08:01;;;;;;;23.40;13.52;;;3.50;99.90;;;;;;5035903;28;20028;-64
2022/12/20 02:10:53;;;;;;;20.83;13.70;;;3.60;99.90;;;;;;5035883;28;20036;-63
2022/12/20 02:13:46;;;;;;;26.02;15.02;;;3.60;99.90;;;;;;5035374;28;20048;-65
2022/12/20 02:16:17;;;;;;;26.38;14.70;;;3.60;99.90;;;;;;5034701;28;20033;-64
2022/12/20 02:18:51;;;;;;;23.92;13.95;;;3.60;99.90;;;;;;5035449;28;20409;-67
2022/12/20 02:21:33;;;;;;;22.75;13.38;;;3.60;99.90;;;;;;5035583;28;20083;-64
2022/12/20 02:24:05;;;;;;;20.85;12.82;;;3.60;99.90;;;;;;5035439;28;20492;-61
2022/12/20 02:26:31;;;;;;;20.10;11.85;;;3.60;99.90;;;;;;5035460;28;20032;-63
2022/12/20 02:29:13;;;;;;;20.25;12.05;;;3.60;99.90;;;;;;5035078;28;20030;-67
2022/12/20 02:31:46;;;;;;;21.30;13.18;;;3.60;99.90;;;;;;5035376;28;20049;-67
2022/12/20 02:34:13;;;;;;;20.73;13.15;;;3.60;99.90;;;;;;5035164;28;20026;-67
2022/12/20 02:36:39;;;;;;;20.10;12.50;;;3.60;99.90;;;;;;5035324;28;20018;-63
2022/12/20 02:39:05;;;;;;;30.15;16.27;;;3.60;99.90;;;;;;5035143;28;20020;-66
2022/12/20 02:41:50;;;;;;;22.75;13.77;;;3.60;99.90;;;;;;5035009;28;20107;-64
2022/12/20 02:47:11;;;;;;;24.27;14.43;;;3.50;99.90;;;;;;5035054;28;20021;-66
2022/12/20 02:49:40;;;;;;;28.08;16.35;;;3.50;99.90;;;;;;5034988;28;20036;-67
2022/12/20 02:52:08;;;;;;;31.35;18.08;;;3.50;99.90;;;;;;5035093;28;20174;-64
2022/12/20 02:54:35;;;;;;;25.27;14.27;;;3.40;99.90;;;;;;5034963;28;20024;-66
2022/12/20 02:57:18;;;;;;;33.00;18.30;;;3.50;99.90;;;;;;5034710;28;20023;-64
2022/12/20 03:00:14;;;;;;;40.63;21.65;;;3.50;99.90;;;;;;5034797;28;20025;-64
2022/12/20 03:05:27;;;;;;;38.67;20.65;;;3.20;99.90;;;;;;5034946;28;20056;-63
2022/12/20 03:07:52;;;;;;;42.63;22.05;;;3.00;99.90;;;;;;5034497;28;20038;-66
2022/12/20 03:10:20;;;;;;;45.17;22.70;;;2.90;99.90;;;;;;5034605;28;20075;-65
2022/12/20 03:12:46;;;;;;;42.33;21.02;;;2.90;99.90;;;;;;5034682;28;20432;-63
2022/12/20 03:15:12;;;;;;;42.55;21.92;;;2.80;99.90;;;;;;5034427;28;20029;-65
2022/12/20 03:17:38;;;;;;;40.00;21.40;;;2.80;99.90;;;;;;5034424;28;20090;-64
2022/12/20 03:20:05;;;;;;;32.13;17.40;;;2.90;99.90;;;;;;5034299;28;20041;-65
2022/12/20 03:22:32;;;;;;;36.85;19.95;;;3.00;99.90;;;;;;5034529;28;20021;-63
2022/12/20 03:24:58;;;;;;;37.40;18.92;;;3.10;99.90;;;;;;5034421;28;20475;-65
2022/12/20 03:27:27;;;;;;;30.67;16.08;;;3.10;99.90;;;;;;5034078;28;20022;-64
2022/12/20 03:29:53;;;;;;;24.67;14.18;;;3.10;99.90;;;;;;5034109;28;20211;-66
2022/12/20 03:32:18;;;;;;;23.30;13.48;;;3.20;99.90;;;;;;5034326;28;20376;-68
2022/12/20 03:34:44;;;;;;;26.98;15.38;;;3.40;99.90;;;;;;5034241;28;20215;-64
2022/12/20 03:37:10;;;;;;;24.88;15.10;;;3.50;99.90;;;;;;5034295;28;20107;-64
2022/12/20 03:39:35;;;;;;;24.60;13.95;;;3.50;99.90;;;;;;5034230;28;20499;-62
2022/12/20 03:42:01;;;;;;;24.00;13.65;;;3.60;99.90;;;;;;5033918;28;20029;-62
2022/12/20 03:44:27;;;;;;;26.30;14.95;;;3.70;99.90;;;;;;5033895;28;20021;-65
2022/12/20 03:46:52;;;;;;;28.65;16.42;;;3.70;99.90;;;;;;5033897;28;20400;-64
2022/12/20 03:49:18;;;;;;;27.83;16.45;;;3.70;99.90;;;;;;5033859;28;20100;-67
2022/12/20 03:51:44;;;;;;;30.02;17.67;;;3.70;99.90;;;;;;5033847;28;20388;-65
2022/12/20 03:54:09;;;;;;;28.77;16.73;;;3.70;99.90;;;;;;5032526;28;20387;-67
2022/12/20 03:56:35;;;;;;;28.67;15.13;;;3.80;99.90;;;;;;5033533;28;20411;-67
2022/12/20 03:59:01;;;;;;;26.20;16.50;;;3.80;99.90;;;;;;5033730;28;20021;-64
2022/12/20 04:01:28;;;;;;;25.92;14.18;;;3.80;99.90;;;;;;5033585;28;20017;-66
2022/12/20 04:03:54;;;;;;;27.50;14.98;;;3.80;99.90;;;;;;5033677;28;20534;-66
2022/12/20 04:06:21;;;;;;;25.27;15.65;;;3.80;99.90;;;;;;5033605;28;20057;-66
2022/12/20 04:08:47;;;;;;;32.28;17.58;;;3.80;99.90;;;;;;5033375;28;20019;-63
2022/12/20 04:11:15;;;;;;;36.78;20.20;;;3.80;99.90;;;;;;5033344;28;20083;-66
2022/12/20 04:13:46;;;;;;;33.78;18.27;;;3.70;99.90;;;;;;5033580;28;20034;-66
2022/12/20 04:16:13;;;;;;;40.72;22.38;;;3.50;99.90;;;;;;5033388;28;20025;-68
2022/12/20 04:18:39;;;;;;;48.85;24.33;;;3.50;99.90;;;;;;5033271;28;20049;-61
2022/12/20 04:21:06;;;;;;;44.70;23.80;;;3.40;99.90;;;;;;5033326;28;20022;-65
2022/12/20 04:23:33;;;;;;;49.53;27.23;;;3.30;99.90;;;;;;5033558;28;20087;-61
2022/12/20 04:25:59;;;;;;;45.83;24.30;;;3.10;99.90;;;;;;5032749;28;20017;-64
2022/12/20 04:28:24;;;;;;;56.95;28.80;;;3.10;99.90;;;;;;5033272;28;20392;-67
2022/12/20 04:30:50;;;;;;;53.33;28.38;;;2.90;99.90;;;;;;5033343;28;20030;-63
2022/12/20 04:33:16;;;;;;;42.47;24.25;;;2.80;99.90;;;;;;5033373;28;20434;-66
2022/12/20 04:35:41;;;;;;;45.03;22.83;;;2.90;99.90;;;;;;5033319;28;20426;-69
2022/12/20 04:38:07;;;;;;;44.53;22.85;;;2.80;99.90;;;;;;5033201;28;20388;-64
2022/12/20 04:40:33;;;;;;;43.45;22.60;;;2.80;99.90;;;;;;5033063;28;20368;-67
2022/12/20 04:42:58;;;;;;;44.75;24.20;;;2.70;99.90;;;;;;5033224;28;20447;-63
2022/12/20 04:45:24;;;;;;;42.47;23.33;;;2.80;99.90;;;;;;5033197;28;20366;-63
2022/12/20 04:47:49;;;;;;;38.05;21.38;;;2.70;99.90;;;;;;5033067;28;20024;-68
2022/12/20 04:50:15;;;;;;;36.33;20.50;;;2.70;99.90;;;;;;5032930;28;20034;-66
2022/12/20 04:55:25;;;;;;;46.25;25.15;;;2.90;99.90;;;;;;5033247;28;20079;-68
2022/12/20 04:57:51;;;;;;;42.10;23.23;;;2.80;99.90;;;;;;5033037;28;20026;-67
2022/12/20 05:00:17;;;;;;;47.47;24.10;;;2.90;99.90;;;;;;5032951;28;20022;-67
2022/12/20 05:02:42;;;;;;;38.85;22.50;;;2.80;99.90;;;;;;5033289;28;20025;-63
2022/12/20 05:05:08;;;;;;;43.25;22.48;;;2.70;99.90;;;;;;5032957;28;20045;-62
2022/12/20 05:07:34;;;;;;;33.08;19.17;;;2.70;99.90;;;;;;5033262;28;20064;-62
2022/12/20 05:10:00;;;;;;;37.30;20.48;;;2.70;99.90;;;;;;5032647;28;20065;-68
2022/12/20 05:12:25;;;;;;;34.92;19.92;;;2.80;99.90;;;;;;5032958;28;20471;-67
2022/12/20 05:14:51;;;;;;;40.20;22.30;;;3.00;99.90;;;;;;5032905;28;20101;-66
2022/12/20 05:17:17;;;;;;;48.88;26.85;;;3.00;99.90;;;;;;5032570;28;20103;-63
2022/12/20 05:19:42;;;;;;;45.17;24.52;;;3.00;99.90;;;;;;5032899;28;20045;-64
2022/12/20 05:27:38;;;;;;;42.33;22.40;;;2.90;99.90;;;;;;5032716;28;20095;-61
2022/12/20 05:30:04;;;;;;;42.88;23.85;;;2.90;99.90;;;;;;5032777;28;20468;-64
2022/12/20 05:32:30;;;;;;;34.50;19.80;;;2.90;99.90;;;;;;5032786;28;20026;-61
2022/12/20 05:34:56;;;;;;;29.02;18.58;;;2.80;99.90;;;;;;5032636;28;20043;-64
2022/12/20 05:37:21;;;;;;;45.38;24.05;;;3.00;99.90;;;;;;5032393;28;20032;-66
2022/12/20 05:39:47;;;;;;;45.05;24.23;;;3.00;99.90;;;;;;5035750;28;20026;-67
2022/12/20 05:42:13;;;;;;;33.30;20.48;;;2.90;99.90;;;;;;5036166;28;20475;-66
2022/12/20 05:44:39;;;;;;;34.78;21.17;;;2.90;99.90;;;;;;5036107;28;20483;-67
2022/12/20 05:47:04;;;;;;;64.05;34.03;;;3.10;99.90;;;;;;5036178;28;20476;-66
2022/12/20 05:49:30;;;;;;;39.10;23.92;;;3.10;99.90;;;;;;5036072;28;20032;-66
2022/12/20 05:51:56;;;;;;;46.70;24.92;;;3.10;99.90;;;;;;5035738;28;20036;-64
2022/12/20 05:54:21;;;;;;;40.75;23.13;;;3.10;99.90;;;;;;5036157;28;20018;-64
2022/12/20 05:56:47;;;;;;;35.10;19.80;;;3.10;99.90;;;;;;5036008;28;20399;-64
2022/12/20 05:59:13;;;;;;;32.53;19.38;;;3.10;99.90;;;;;;5035700;28;20088;-65
2022/12/20 06:01:38;;;;;;;47.88;25.20;;;3.10;99.90;;;;;;5035520;28;20071;-67
2022/12/20 06:04:04;;;;;;;41.13;23.77;;;3.10;99.90;;;;;;5035741;28;20036;-67
2022/12/20 06:06:30;;;;;;;39.85;23.05;;;3.00;99.90;;;;;;5034485;28;20026;-61
2022/12/20 06:08:55;;;;;;;45.10;24.65;;;3.00;99.90;;;;;;5034921;28;20536;-64
2022/12/20 06:11:21;;;;;;;50.80;26.50;;;2.80;99.90;;;;;;5035766;28;20021;-67
2022/12/20 06:13:47;;;;;;;42.88;23.42;;;2.80;99.90;;;;;;5036981;28;20025;-68
2022/12/20 06:16:12;;;;;;;51.22;26.33;;;2.70;99.90;;;;;;5055269;28;20070;-69
2022/12/20 06:18:38;;;;;;;50.35;26.58;;;2.70;99.90;;;;;;5055374;28;20056;-66
2022/12/20 06:21:04;;;;;;;69.18;36.00;;;2.70;99.90;;;;;;5053990;28;20394;-66
2022/12/20 06:23:30;;;;;;;55.53;29.08;;;2.70;99.90;;;;;;5053665;28;20031;-66
2022/12/20 06:25:56;;;;;;;49.78;27.55;;;2.60;99.90;;;;;;5054051;28;20017;-65
2022/12/20 10:18:16;;;;;;;49.58;27.73;;;3.50;99.90;;;;;;5102951;27;20476;-75
2022/12/20 10:21:09;;;;;;;49.55;27.70;;;3.60;99.90;;;;;;5048553;28;20025;-61
2022/12/20 10:23:44;;;;;;;42.72;25.67;;;4.00;99.90;;;;;;5050767;28;20029;-71
2022/12/20 10:26:12;;;;;;;45.20;27.42;;;4.40;99.90;;;;;;5051139;28;20471;-67
2022/12/20 10:28:43;;;;;;;42.78;27.33;;;4.70;99.90;;;;;;5053104;28;20029;-61
2022/12/20 10:31:14;;;;;;;56.67;32.55;;;4.80;99.90;;;;;;5048342;28;20025;-68
2022/12/20 10:33:41;;;;;;;52.13;32.00;;;5.10;99.90;;;;;;5047670;28;20082;-67
2022/12/20 10:36:25;;;;;;;48.10;28.20;;;5.20;99.90;;;;;;5043915;28;20044;-66
2022/12/20 10:38:56;;;;;;;45.05;27.55;;;5.40;99.90;;;;;;5043454;28;20091;-70
2022/12/20 10:41:28;;;;;;;45.03;29.25;;;5.70;99.90;;;;;;5045342;28;20061;-68
2022/12/20 10:44:15;;;;;;;45.08;28.52;;;5.70;99.90;;;;;;5043330;28;20094;-63
2022/12/20 10:46:57;;;;;;;51.10;31.88;;;5.70;99.90;;;;;;5043200;28;20017;-62
2022/12/20 10:49:36;;;;;;;43.22;28.63;;;6.00;99.90;;;;;;5043465;28;20116;-69
2022/12/20 10:52:06;;;;;;;41.20;27.02;;;6.10;99.90;;;;;;5043858;28;20079;-68
2022/12/20 10:54:36;;;;;;;40.30;27.40;;;6.30;99.90;;;;;;5043771;28;20025;-68
2022/12/20 10:57:23;;;;;;;38.85;26.67;;;6.50;99.90;;;;;;5043228;28;20392;-69
2022/12/20 11:00:01;;;;;;;42.58;28.95;;;6.70;99.90;;;;;;5043314;28;20047;-64
2022/12/20 11:02:28;;;;;;;43.25;30.23;;;6.80;99.90;;;;;;5042489;28;20021;-65
2022/12/20 11:05:18;;;;;;;45.65;30.98;;;6.90;99.90;;;;;;5044039;28;20087;-60
2022/12/20 11:08:15;;;;;;;42.63;28.70;;;7.10;99.90;;;;;;5020036;28;20048;-65
2022/12/20 11:10:41;;;;;;;38.50;26.67;;;7.30;99.90;;;;;;5026744;28;20033;-66
2022/12/20 11:13:25;;;;;;;37.38;26.73;;;7.50;99.90;;;;;;5027449;28;20360;-69
2022/12/20 11:16:00;;;;;;;38.20;27.23;;;7.70;99.90;;;;;;5041231;28;20190;-66
2022/12/20 11:18:36;;;;;;;44.20;31.33;;;8.10;99.90;;;;;;5046676;28;20063;-62
2022/12/20 11:21:39;;;;;;;54.38;38.90;;;8.20;99.90;;;;;;5046578;28;20028;-67
2022/12/20 11:24:34;;;;;;;49.55;34.35;;;7.90;99.90;;;;;;5045138;28;20035;-64
2022/12/20 11:27:37;;;;;;;52.90;36.30;;;8.00;99.90;;;;;;5034124;28;20017;-62
2022/12/20 11:30:20;;;;;;;44.70;33.83;;;8.30;99.90;;;;;;5030303;28;20049;-63
2022/12/20 11:32:54;;;;;;;47.40;34.72;;;8.50;99.90;;;;;;5032436;28;20037;-65
2022/12/20 11:36:00;;;;;;;45.55;34.80;;;8.90;97.90;;;;;;5031731;28;20022;-64
2022/12/20 11:38:55;;;;;;;44.97;33.58;;;9.20;91.10;;;;;;5030656;28;20041;-68
2022/12/20 11:42:09;;;;;;;40.83;30.60;;;9.40;91.20;;;;;;5032541;28;20022;-63
2022/12/20 11:45:02;;;;;;;35.87;28.47;;;9.70;80.30;;;;;;5014856;28;20044;-65
2022/12/20 11:47:58;;;;;;;41.72;31.58;;;9.70;80.80;;;;;;5032094;28;20025;-66
2022/12/20 11:50:27;;;;;;;48.80;36.63;;;10.00;75.00;;;;;;5032483;28;20048;-64
2022/12/20 11:53:28;;;;;;;47.90;36.10;;;10.10;70.90;;;;;;5032822;28;20038;-72
2022/12/20 11:56:00;;;;;;;45.83;35.38;;;10.20;72.30;;;;;;5033584;28;20124;-70
2022/12/20 11:58:35;;;;;;;54.15;40.33;;;10.20;68.90;;;;;;5035167;28;20061;-68
2022/12/20 12:01:09;;;;;;;52.63;40.63;;;10.30;72.20;;;;;;5034926;28;20022;-70
2022/12/20 12:03:36;;;;;;;54.58;38.38;;;10.40;68.30;;;;;;5024738;28;20530;-68
2022/12/20 12:06:29;;;;;;;51.08;37.97;;;10.60;66.00;;;;;;5031141;28;20141;-71
2022/12/20 12:09:07;;;;;;;55.97;38.60;;;10.50;71.70;;;;;;5030624;28;20033;-69
2022/12/20 12:11:39;;;;;;;51.95;38.53;;;10.50;65.50;;;;;;5033387;28;20056;-71
2022/12/20 12:14:05;;;;;;;44.38;34.53;;;10.50;76.20;;;;;;5033195;28;20101;-63
2022/12/20 12:16:38;;;;;;;53.35;40.13;;;10.60;70.60;;;;;;5032212;28;20411;-71
2022/12/20 12:19:09;;;;;;;45.55;34.80;;;10.80;63.90;;;;;;5031193;28;20483;-67
2022/12/20 12:21:43;;;;;;;50.72;37.08;;;10.70;65.60;;;;;;5031521;28;20044;-67
2022/12/20 12:24:11;;;;;;;;;;;10.70;66.90;;;;;;5027068;28;20057;-66
2022/12/20 12:26:44;;;;;;;50.85;35.58;;;10.90;64.50;;;;;;5027818;28;19920;-70
2022/12/20 12:29:16;;;;;;;46.20;33.05;;;10.90;69.10;;;;;;5029280;28;20029;-65
2022/12/20 12:31:47;;;;;;;45.72;34.28;;;10.90;68.90;;;;;;5029573;28;20490;-66
2022/12/20 12:34:27;;;;;;;42.10;32.00;;;10.90;65.70;;;;;;5029763;28;20017;-65
2022/12/20 12:37:24;;;;;;;49.33;34.58;;;10.90;65.80;;;;;;5027701;28;20479;-70
2022/12/20 12:40:22;;;;;;;62.70;43.03;;;10.70;65.60;;;;;;5028780;28;20029;-68
2022/12/20 12:42:51;;;;;;;57.75;42.78;;;10.30;66.10;;;;;;5030587;28;20017;-65
2022/12/20 12:45:25;;;;;;;52.10;40.83;;;10.20;76.50;;;;;;5031673;28;20029;-67
2022/12/20 12:48:15;;;;;;;50.35;38.03;;;10.40;71.90;;;;;;5032534;28;20395;-66
2022/12/20 12:50:46;;;;;;;46.55;35.08;;;10.60;69.70;;;;;;5031760;28;20025;-67
2022/12/20 12:53:22;;;;;;;49.00;35.83;;;10.80;67.30;;;;;;5033325;28;20060;-68
2022/12/20 12:55:50;;;;;;;45.33;34.05;;;11.00;64.90;;;;;;5034857;28;20472;-64
2022/12/20 12:58:22;;;;;;;39.65;32.15;;;11.00;64.80;;;;;;5034200;28;20026;-68
2022/12/20 13:00:53;;;;;;;43.17;32.53;;;11.20;64.40;;;;;;5034311;28;20064;-65
2022/12/20 13:03:41;;;;;;;53.25;36.55;;;11.40;63.20;;;;;;5034543;28;20128;-70
2022/12/20 13:06:45;;;;;;;39.35;31.58;;;11.50;61.90;;;;;;5033095;28;20034;-69
2022/12/20 13:09:35;;;;;;;44.83;35.75;;;11.50;61.60;;;;;;5028497;28;20033;-67
2022/12/20 13:12:33;;;;;;;52.75;37.88;;;11.50;60.50;;;;;;5032860;28;20433;-70
2022/12/20 13:14:59;;;;;;;44.50;35.53;;;11.00;62.60;;;;;;5030040;28;20191;-63
2022/12/20 13:17:27;;;;;;;43.72;32.50;;;11.10;64.80;;;;;;5030202;28;20116;-67
2022/12/20 13:19:54;;;;;;;50.03;35.90;;;11.30;63.00;;;;;;5030200;28;20391;-65
2022/12/20 13:22:22;;;;;;;42.70;34.45;;;11.40;62.20;;;;;;5029873;28;20425;-68
2022/12/20 13:24:55;;;;;;;44.15;34.70;;;11.40;62.70;;;;;;5030851;28;20053;-66
2022/12/20 13:27:30;;;;;;;46.60;35.22;;;11.40;62.50;;;;;;5028382;28;20068;-69
2022/12/20 13:30:12;;;;;;;40.25;32.42;;;11.40;63.00;;;;;;5026415;28;20048;-67
2022/12/20 13:32:46;;;;;;;49.90;36.50;;;11.50;61.70;;;;;;5025668;28;20030;-62
2022/12/20 13:35:24;;;;;;;57.65;43.70;;;11.50;61.80;;;;;;5030351;28;20426;-66
2022/12/20 13:38:01;;;;;;;66.35;48.72;;;11.30;64.30;;;;;;5030556;28;20514;-72
2022/12/20 13:40:48;;;;;;;54.88;43.25;;;11.10;64.50;;;;;;5030596;28;20029;-70
2022/12/20 13:43:23;;;;;;;73.75;51.85;;;10.80;67.90;;;;;;5030831;28;20025;-68
2022/12/20 13:46:08;;;;;;;54.50;42.03;;;11.00;66.80;;;;;;5030127;28;20045;-70
2022/12/20 13:48:39;;;;;;;60.85;45.25;;;10.80;66.80;;;;;;5012397;28;20040;-66
2022/12/20 13:51:09;;;;;;;53.13;41.90;;;10.90;66.80;;;;;;5017564;28;20033;-64
2022/12/20 13:53:36;;;;;;;63.17;48.72;;;11.00;67.90;;;;;;5032774;28;20018;-66
2022/12/20 13:56:32;;;;;;;86.25;60.45;;;10.90;65.80;;;;;;5032736;28;20105;-67
2022/12/20 13:59:21;;;;;;;114.93;82.68;;;10.40;71.10;;;;;;5031258;28;20387;-65
2022/12/20 14:01:55;;;;;;;99.47;75.30;;;9.70;92.60;;;;;;5031783;28;20021;-64
2022/12/20 14:04:21;;;;;;;130.32;93.38;;;9.40;97.60;;;;;;5032714;28;20117;-63
2022/12/20 14:06:58;;;;;;;159.00;107.25;;;9.50;97.10;;;;;;5033227;28;20403;-63
2022/12/20 14:09:36;;;;;;;122.95;91.28;;;9.30;99.30;;;;;;5032317;28;20534;-65
2022/12/20 14:12:10;;;;;;;131.98;95.78;;;9.00;99.90;;;;;;5033123;28;20044;-66
2022/12/20 14:14:47;;;;;;;119.07;89.57;;;8.80;99.90;;;;;;5032592;28;20040;-64
2022/12/20 14:17:22;;;;;;;121.90;87.72;;;8.60;99.90;;;;;;5031492;28;20046;-67
2022/12/20 14:20:01;;;;;;;121.28;85.20;;;8.50;99.90;;;;;;5032473;28;20025;-66
2022/12/20 14:22:27;;;;;;;129.05;92.72;;;8.20;99.90;;;;;;5032790;28;20471;-67
2022/12/20 14:24:53;;;;;;;139.82;97.97;;;7.70;99.90;;;;;;5033186;28;20024;-69
2022/12/20 14:27:18;;;;;;;130.02;91.85;;;7.40;99.90;;;;;;5033098;28;20034;-63
2022/12/20 14:29:44;;;;;;;151.25;105.95;;;7.10;99.90;;;;;;5033077;28;20060;-67
2022/12/20 14:32:20;;;;;;;122.57;87.18;;;6.90;99.90;;;;;;5033167;28;20022;-68
2022/12/20 14:34:46;;;;;;;114.32;79.43;;;6.80;99.90;;;;;;5033174;28;20037;-66
2022/12/20 14:37:33;;;;;;;115.10;81.10;;;6.70;99.90;;;;;;5033045;28;20025;-69
2022/12/20 14:40:17;;;;;;;111.68;79.90;;;6.70;99.90;;;;;;5033178;28;20103;-64
2022/12/20 14:42:44;;;;;;;115.13;79.38;;;6.80;99.90;;;;;;5033065;28;20024;-67
2022/12/20 14:45:10;;;;;;;120.90;85.65;;;6.70;99.90;;;;;;5033265;28;20033;-69
2022/12/20 14:47:36;;;;;;;125.90;88.97;;;6.70;99.90;;;;;;5032753;28;20406;-67
2022/12/20 14:50:16;;;;;;;143.75;99.25;;;6.80;99.90;;;;;;5032996;28;20360;-66
2022/12/20 14:52:43;;;;;;;125.03;85.57;;;6.70;99.90;;;;;;5033024;28;20034;-64
2022/12/20 14:55:21;;;;;;;130.15;89.10;;;6.60;99.90;;;;;;5032877;28;20026;-68
2022/12/20 14:57:50;;;;;;;101.55;70.82;;;6.70;99.90;;;;;;5032941;28;20060;-65
2022/12/20 15:00:28;;;;;;;123.93;82.43;;;6.90;99.90;;;;;;5033050;28;20034;-65
2022/12/20 15:03:01;;;;;;;128.95;86.60;;;7.10;99.90;;;;;;5033462;28;20024;-71
2022/12/20 15:05:41;;;;;;;105.43;74.07;;;7.00;99.90;;;;;;5036340;28;20021;-63
2022/12/20 15:08:18;;;;;;;121.20;84.28;;;6.90;99.90;;;;;;5036496;28;20132;-65
2022/12/20 15:10:58;;;;;;;112.53;76.13;;;7.20;99.90;;;;;;5036465;28;20385;-67
2022/12/20 15:13:30;;;;;;;143.38;96.88;;;7.20;99.90;;;;;;5036550;28;20022;-65
2022/12/20 15:16:18;;;;;;;158.70;107.55;;;7.00;99.90;;;;;;5036232;28;20478;-70
2022/12/20 15:18:44;;;;;;;167.35;118.60;;;6.50;99.90;;;;;;5036181;28;20026;-64
2022/12/20 15:21:23;;;;;;;184.70;126.47;;;6.20;99.90;;;;;;5036613;28;20427;-73
2022/12/20 15:23:51;;;;;;;214.10;153.10;;;6.00;99.90;;;;;;5036310;28;20028;-68
2022/12/20 15:26:20;;;;;;;222.13;154.07;;;5.80;99.90;;;;;;5036273;28;20048;-63
2022/12/20 15:28:46;;;;;;;201.80;136.13;;;5.70;99.90;;;;;;5035149;28;20040;-72
2022/12/20 15:31:14;;;;;;;168.02;119.00;;;5.50;99.90;;;;;;5034956;28;20025;-73
2022/12/20 15:33:41;;;;;;;182.48;130.43;;;5.40;99.90;;;;;;5034602;28;20476;-61
2022/12/20 15:36:17;;;;;;;178.90;130.52;;;5.30;99.90;;;;;;5034242;28;20391;-65
2022/12/20 15:38:43;;;;;;;166.30;120.32;;;5.00;99.90;;;;;;5035455;28;20029;-69
2022/12/20 15:41:18;;;;;;;206.93;140.38;;;4.80;99.90;;;;;;5034435;28;20026;-66
2022/12/20 15:43:44;;;;;;;232.07;158.80;;;4.70;99.90;;;;;;5034375;28;20031;-66
2022/12/20 15:46:10;;;;;;;254.07;177.20;;;4.50;99.90;;;;;;5034474;28;20022;-69
2022/12/20 15:48:35;;;;;;;262.38;185.05;;;4.30;99.90;;;;;;5034843;28;20356;-68
2022/12/20 15:51:11;;;;;;;210.93;150.75;;;4.40;99.90;;;;;;5035341;28;20051;-65
2022/12/20 15:53:37;;;;;;;147.18;104.60;;;4.40;99.90;;;;;;5035525;28;20032;-67
2022/12/20 15:56:03;;;;;;;122.18;86.20;;;4.40;99.90;;;;;;5035538;28;20464;-65
2022/12/20 15:58:28;;;;;;;126.15;86.90;;;4.40;99.90;;;;;;5035745;28;20022;-65
2022/12/20 16:00:58;;;;;;;134.63;87.05;;;4.20;99.90;;;;;;5035666;28;20093;-66
2022/12/20 16:03:29;;;;;;;135.02;88.03;;;4.10;99.90;;;;;;5035354;28;20014;-69
2022/12/20 16:05:55;;;;;;;160.18;99.65;;;4.00;99.90;;;;;;5035590;28;20101;-66
2022/12/20 16:08:21;;;;;;;166.27;105.97;;;4.10;99.90;;;;;;5035762;28;20033;-68
2022/12/20 16:10:50;;;;;;;140.60;88.40;;;4.20;99.90;;;;;;5035359;28;20537;-70
2022/12/20 16:13:21;;;;;;;147.32;93.38;;;4.40;99.90;;;;;;5035632;28;20037;-70
2022/12/20 16:15:47;;;;;;;202.95;123.80;;;4.50;99.90;;;;;;5035075;28;20029;-65
2022/12/20 16:18:13;;;;;;;224.05;133.27;;;4.50;99.90;;;;;;5035219;28;20041;-68
2022/12/20 16:20:39;;;;;;;235.20;145.48;;;4.50;99.90;;;;;;5035419;28;20459;-65
2022/12/20 16:23:15;;;;;;;222.73;138.13;;;4.50;99.90;;;;;;5035373;28;20022;-64
2022/12/20 16:25:41;;;;;;;180.07;114.78;;;4.50;99.90;;;;;;5035149;28;20026;-68
2022/12/20 16:28:07;;;;;;;161.70;102.70;;;4.50;99.90;;;;;;5035034;28;20032;-70
2022/12/20 16:30:33;;;;;;;168.63;106.88;;;4.50;99.90;;;;;;5033462;28;20056;-61
2022/12/20 16:32:59;;;;;;;183.82;117.22;;;4.40;99.90;;;;;;5034893;28;20044;-68
2022/12/20 16:35:43;;;;;;;182.20;117.45;;;4.40;99.90;;;;;;5035076;28;20479;-64
2022/12/20 16:38:09;;;;;;;189.65;118.82;;;4.50;99.90;;;;;;5034843;28;20494;-61
2022/12/20 16:40:34;;;;;;;201.05;128.32;;;4.40;99.90;;;;;;5034964;28;20184;-66
2022/12/20 16:43:00;;;;;;;258.85;163.18;;;4.40;99.90;;;;;;5034831;28;20388;-66
2022/12/20 16:45:29;;;;;;;255.07;159.02;;;4.40;99.90;;;;;;5034505;28;20028;-63
2022/12/20 16:47:55;;;;;;;230.95;145.98;;;4.30;99.90;;;;;;5034770;28;20033;-68
2022/12/20 16:50:23;;;;;;;205.45;135.35;;;4.20;99.90;;;;;;5034604;28;20031;-62
2022/12/20 16:52:49;;;;;;;213.40;128.85;;;4.10;99.90;;;;;;5034538;28;20456;-68
2022/12/20 16:55:33;;;;;;;234.80;142.77;;;4.20;99.90;;;;;;5034590;28;20104;-64
2022/12/20 16:57:59;;;;;;;;;;;4.20;99.90;;;;;;5035039;28;20033;-66
2022/12/20 17:00:26;;;;;;;184.52;117.32;;;4.20;99.90;;;;;;5034646;28;19971;-66